AerodromSadržaj METAR izveštaja
LYBEMETAR LYBE 162030Z 17003KT 150V210 CAVOK 21/12 Q1016 NOSIG=
LYBTMETAR LYBT 162030Z 11003KT CAVOK 16/13 Q1016 NOSIG=
LYKVMETAR LYKV 162030Z VRB01KT CAVOK 14/11 Q1017 NOSIG=
LYNIMETAR LYNI 162030Z 09006KT CAVOK 18/07 Q1017 NOSIG=
LYVRMETAR LYVR 162030Z VRB01KT CAVOK 15/09 Q1016 NOSIG=
LYUZMETAR LYUZ 162030Z AUTO VRB01KT CAVOK 13/09 Q1021=
LYPGMETAR LYPG 162030Z 25003KT CAVOK 22/16 Q1016 NOSIG=
LYTVMETAR LYTV 162030Z VRB02KT CAVOK 17/16 Q1016=

Podaci učitani u: 2019-09-16 20:47:26 UTC

METAR, TAF, AIRMET, GAMET, SIGMET

Važna napomena: MET infоrmаciје nа оvim web strаnicаmа imајu infоrmаtivni kаrаktеr, nаmenjene su isključivo vаzduhоplоvnim kоrisnicima, nе smејu sе kоristiti zа bilо kоје kоmеrciјаlnе svrhе, i nе zаmеnjuјu dоkumеntаciјu zа lеt.